Time;durP1;ratioP1;P1;durP2;ratioP2;P2;SDS_P1;SDS_P2;PMS_P1;PMS_P2;Temp;Humidity;BMP_temperature;BMP_pressure;BME280_temperature;BME280_humidity;BME280_pressure;Samples;Min_cycle;Max_cycle;Signal;HPM_P1;HPM_P2
2023/07/01 00:01:34;;;;;;;6.70;2.50;;;17.60;99.90;;;;;;7372746;19;20010;-64
2023/07/01 00:04:01;;;;;;;9.85;2.55;;;17.50;99.90;;;;;;7371935;19;20018;-63
2023/07/01 00:06:27;;;;;;;10.48;3.15;;;17.50;99.90;;;;;;7371325;19;20024;-64
2023/07/01 00:08:54;;;;;;;6.35;2.03;;;17.50;99.90;;;;;;7370714;19;20023;-64
2023/07/01 00:11:23;;;;;;;10.85;3.08;;;17.50;99.90;;;;;;7372581;19;20022;-63
2023/07/01 00:13:49;;;;;;;8.40;2.95;;;17.50;99.90;;;;;;7374757;19;20026;-64
2023/07/01 00:16:16;;;;;;;7.70;2.60;;;17.50;99.90;;;;;;7371717;19;20461;-63
2023/07/01 00:18:43;;;;;;;8.18;3.00;;;17.50;99.90;;;;;;7373792;19;20032;-64
2023/07/01 00:21:10;;;;;;;10.27;2.53;;;17.50;99.90;;;;;;7372239;19;20634;-64
2023/07/01 00:23:36;;;;;;;6.75;2.90;;;17.60;99.90;;;;;;7374637;19;20023;-63
2023/07/01 00:26:02;;;;;;;11.35;2.80;;;17.60;99.90;;;;;;7368960;19;20027;-64
2023/07/01 00:28:29;;;;;;;11.57;2.70;;;17.60;99.90;;;;;;7373876;19;20011;-64
2023/07/01 00:30:55;;;;;;;10.25;2.50;;;17.60;99.90;;;;;;7372219;19;20095;-59
2023/07/01 00:33:21;;;;;;;5.15;2.40;;;17.60;99.90;;;;;;7373805;19;20049;-59
2023/07/01 00:35:47;;;;;;;9.95;2.53;;;17.60;99.90;;;;;;7370438;19;20086;-64
2023/07/01 00:38:14;;;;;;;9.10;2.35;;;17.60;99.90;;;;;;7371202;19;20019;-64
2023/07/01 00:40:40;;;;;;;9.45;2.88;;;17.60;99.90;;;;;;7371520;19;20520;-64
2023/07/01 00:43:07;;;;;;;9.48;3.00;;;17.60;99.90;;;;;;7374250;19;20029;-64
2023/07/01 00:45:33;;;;;;;10.95;2.90;;;17.60;99.90;;;;;;7372708;19;20433;-64
2023/07/01 00:48:00;;;;;;;7.05;2.53;;;17.60;99.90;;;;;;7369223;19;20022;-59
2023/07/01 00:50:26;;;;;;;6.40;3.08;;;17.60;99.90;;;;;;7371287;19;20872;-59
2023/07/01 00:52:53;;;;;;;10.55;2.38;;;17.70;99.90;;;;;;7372802;19;20907;-59
2023/07/01 00:55:19;;;;;;;11.95;3.60;;;17.70;99.90;;;;;;7374139;19;20018;-59
2023/07/01 00:57:48;;;;;;;7.82;2.72;;;17.70;99.90;;;;;;7371300;19;20510;-64
2023/07/01 01:00:15;;;;;;;8.13;2.42;;;17.70;99.90;;;;;;7370870;19;20029;-58
2023/07/01 01:02:55;;;;;;;8.50;2.47;;;17.60;99.90;;;;;;7369596;19;20019;-59
2023/07/01 01:05:51;;;;;;;11.55;3.10;;;17.70;99.90;;;;;;7374750;19;20021;-64
2023/07/01 01:08:37;;;;;;;10.73;2.70;;;17.60;99.90;;;;;;7373097;19;20027;-64
2023/07/01 01:11:05;;;;;;;9.95;3.03;;;17.60;99.90;;;;;;7375981;19;20015;-65
2023/07/01 01:13:32;;;;;;;8.68;2.85;;;17.60;99.90;;;;;;7379346;19;20022;-63
2023/07/01 01:16:00;;;;;;;10.38;3.35;;;17.60;99.90;;;;;;7376626;19;20011;-64
2023/07/01 01:18:31;;;;;;;11.23;3.33;;;17.60;99.90;;;;;;7375508;19;20346;-63
2023/07/01 01:20:59;;;;;;;10.65;3.03;;;17.60;99.90;;;;;;7378381;19;20025;-63
2023/07/01 01:23:38;;;;;;;9.07;3.08;;;17.60;99.90;;;;;;7375482;19;20477;-58
2023/07/01 01:26:22;;;;;;;7.38;2.55;;;17.70;99.90;;;;;;7378383;19;20022;-63
2023/07/01 01:28:50;;;;;;;8.43;3.13;;;17.70;99.90;;;;;;7377619;19;20438;-59
2023/07/01 01:31:19;;;;;;;8.30;3.05;;;17.60;99.90;;;;;;7377376;19;20023;-58
2023/07/01 01:33:47;;;;;;;7.93;3.28;;;17.70;99.90;;;;;;7376232;19;20010;-64
2023/07/01 01:36:42;;;;;;;9.32;3.20;;;17.70;99.90;;;;;;7373962;19;20386;-63
2023/07/01 01:39:10;;;;;;;9.90;3.33;;;17.70;99.90;;;;;;7374346;19;20019;-58
2023/07/01 01:41:49;;;;;;;7.72;3.42;;;17.70;99.90;;;;;;7377206;19;20026;-58
2023/07/01 01:44:34;;;;;;;7.30;3.00;;;17.70;99.90;;;;;;7379162;19;20026;-58
2023/07/01 01:47:02;;;;;;;6.78;3.38;;;17.70;99.90;;;;;;7371958;19;20030;-63
2023/07/01 01:49:29;;;;;;;8.10;3.92;;;17.70;99.90;;;;;;7377787;19;20042;-59
2023/07/01 01:51:57;;;;;;;9.50;3.50;;;17.70;99.90;;;;;;7373346;19;20018;-58
2023/07/01 01:54:25;;;;;;;8.85;3.58;;;17.70;99.90;;;;;;7376836;19;20010;-64
2023/07/01 01:56:52;;;;;;;8.38;3.42;;;17.70;99.90;;;;;;7375874;19;20109;-59
2023/07/01 01:59:19;;;;;;;8.68;3.28;;;17.60;99.90;;;;;;7376226;19;20048;-63
2023/07/01 02:01:46;;;;;;;6.82;3.53;;;17.70;99.90;;;;;;7377490;19;20021;-64
2023/07/01 02:04:13;;;;;;;12.05;4.20;;;17.60;99.90;;;;;;7376638;19;20040;-64
2023/07/01 02:06:39;;;;;;;8.73;3.55;;;17.60;99.90;;;;;;7376376;19;20014;-63
2023/07/01 02:09:06;;;;;;;10.30;4.30;;;17.50;99.90;;;;;;7375054;19;20600;-63
2023/07/01 02:11:32;;;;;;;8.25;4.30;;;17.40;99.90;;;;;;7370358;19;20022;-63
2023/07/01 02:13:58;;;;;;;10.30;3.83;;;17.30;99.90;;;;;;7378272;19;20019;-59
2023/07/01 02:16:24;;;;;;;9.93;3.90;;;17.20;99.90;;;;;;7378292;19;20026;-58
2023/07/01 02:18:50;;;;;;;7.55;3.72;;;17.20;99.90;;;;;;7373867;19;20817;-58
2023/07/01 02:21:17;;;;;;;9.68;4.57;;;17.20;99.90;;;;;;7378937;19;20668;-58
2023/07/01 02:23:43;;;;;;;11.90;4.35;;;17.20;99.90;;;;;;7378550;19;20029;-64
2023/07/01 02:26:10;;;;;;;10.13;3.97;;;17.10;99.90;;;;;;7377652;19;20015;-63
2023/07/01 02:28:36;;;;;;;10.45;3.88;;;17.20;99.90;;;;;;7375702;19;20028;-63
2023/07/01 02:31:03;;;;;;;9.48;3.72;;;17.20;99.90;;;;;;7373879;19;20019;-63
2023/07/01 02:33:29;;;;;;;8.88;3.38;;;17.20;99.90;;;;;;7372890;19;20481;-63
2023/07/01 02:35:55;;;;;;;8.50;3.80;;;17.20;99.90;;;;;;7378930;19;20018;-64
2023/07/01 02:38:21;;;;;;;11.88;4.00;;;17.20;99.90;;;;;;7376540;19;20029;-62
2023/07/01 02:40:47;;;;;;;8.65;3.40;;;17.30;99.90;;;;;;7375467;19;20035;-58
2023/07/01 02:43:16;;;;;;;10.00;3.28;;;17.30;99.90;;;;;;7371537;19;20025;-63
2023/07/01 02:45:43;;;;;;;11.65;3.78;;;17.30;99.90;;;;;;7376705;19;20018;-58
2023/07/01 02:48:09;;;;;;;9.45;3.42;;;17.30;99.90;;;;;;7375182;19;20046;-59
2023/07/01 02:50:36;;;;;;;7.20;3.72;;;17.40;99.90;;;;;;7373053;19;20401;-58
2023/07/01 02:53:03;;;;;;;11.80;3.70;;;17.40;99.90;;;;;;7371040;19;20024;-62
2023/07/01 02:55:29;;;;;;;13.40;3.70;;;17.40;99.90;;;;;;7376290;19;20019;-58
2023/07/01 02:57:55;;;;;;;8.50;3.60;;;17.40;99.90;;;;;;7373522;19;20557;-58
2023/07/01 03:00:21;;;;;;;10.27;3.72;;;17.40;99.90;;;;;;7373500;19;20026;-58
2023/07/01 03:02:50;;;;;;;11.20;3.47;;;17.40;99.90;;;;;;7376027;19;20046;-63
2023/07/01 03:05:21;;;;;;;8.80;3.50;;;17.40;99.90;;;;;;7376566;19;20482;-63
2023/07/01 03:07:47;;;;;;;7.75;3.42;;;17.30;99.90;;;;;;7377766;19;20018;-58
2023/07/01 03:10:16;;;;;;;8.40;4.13;;;17.30;99.90;;;;;;7373625;19;20041;-63
2023/07/01 03:12:42;;;;;;;7.05;3.58;;;17.30;99.90;;;;;;7373151;19;20521;-63
2023/07/01 03:15:09;;;;;;;12.57;3.38;;;17.30;99.90;;;;;;7374410;19;20279;-62
2023/07/01 03:17:35;;;;;;;9.77;3.28;;;17.20;99.90;;;;;;7378976;19;20478;-63
2023/07/01 03:20:04;;;;;;;8.10;3.60;;;17.10;99.90;;;;;;7372456;19;20014;-63
2023/07/01 03:22:30;;;;;;;10.25;4.00;;;16.90;99.90;;;;;;7373363;19;20472;-64
2023/07/01 03:24:56;;;;;;;6.18;3.90;;;16.80;99.90;;;;;;7370228;19;20015;-64
2023/07/01 03:27:22;;;;;;;6.72;3.80;;;16.50;99.90;;;;;;7373037;19;20019;-64
2023/07/01 03:29:49;;;;;;;9.52;4.47;;;16.30;99.90;;;;;;7370962;19;20049;-60
2023/07/01 03:32:15;;;;;;;9.73;4.40;;;16.10;99.90;;;;;;7374551;19;20014;-59
2023/07/01 03:34:41;;;;;;;10.15;4.45;;;15.90;99.90;;;;;;7371726;19;20492;-60
2023/07/01 03:37:08;;;;;;;9.48;4.55;;;15.80;99.90;;;;;;7370875;19;20022;-64
2023/07/01 03:39:34;;;;;;;9.45;4.95;;;15.60;99.90;;;;;;7372256;19;20019;-59
2023/07/01 03:42:00;;;;;;;7.40;4.20;;;15.60;99.90;;;;;;7375165;19;20023;-59
2023/07/01 03:44:26;;;;;;;10.32;5.13;;;15.60;99.90;;;;;;7369440;19;20576;-65
2023/07/01 03:46:53;;;;;;;8.70;4.70;;;15.70;99.90;;;;;;7373216;19;20576;-60
2023/07/01 03:49:19;;;;;;;10.98;5.00;;;15.70;99.90;;;;;;7368864;19;20024;-65
2023/07/01 03:51:46;;;;;;;8.30;5.43;;;15.70;99.90;;;;;;7374240;19;20014;-59
2023/07/01 03:54:12;;;;;;;10.32;5.68;;;15.50;99.90;;;;;;7368370;19;20255;-59
2023/07/01 03:56:38;;;;;;;9.52;5.60;;;15.40;99.90;;;;;;7371016;19;20014;-59
2023/07/01 03:59:04;;;;;;;9.80;5.82;;;15.30;99.90;;;;;;7365446;19;20022;-60
2023/07/01 04:01:32;;;;;;;9.18;5.53;;;15.30;99.90;;;;;;7370499;19;20645;-60
2023/07/01 04:03:58;;;;;;;8.00;6.25;;;15.30;99.90;;;;;;7368434;19;20037;-59
2023/07/01 04:06:24;;;;;;;8.35;5.93;;;15.30;99.90;;;;;;7373630;19;20608;-67
2023/07/01 04:08:54;;;;;;;11.30;6.53;;;15.30;99.90;;;;;;7369968;19;20030;-67
2023/07/01 04:11:21;;;;;;;12.52;5.90;;;15.40;99.90;;;;;;7369158;19;20026;-60
2023/07/01 04:13:51;;;;;;;10.70;6.05;;;15.40;99.90;;;;;;7368912;19;20014;-60
2023/07/01 04:16:18;;;;;;;10.68;5.65;;;15.40;99.90;;;;;;7368454;19;20022;-67
2023/07/01 04:18:44;;;;;;;9.07;5.22;;;15.50;99.90;;;;;;7369050;19;20022;-67
2023/07/01 04:21:11;;;;;;;8.32;5.43;;;15.50;99.90;;;;;;7365223;19;20025;-67
2023/07/01 04:23:37;;;;;;;9.10;5.63;;;15.50;99.90;;;;;;7370120;19;20113;-60
2023/07/01 04:26:04;;;;;;;8.77;5.30;;;15.50;99.90;;;;;;7369747;19;20018;-61
2023/07/01 04:28:30;;;;;;;7.50;4.90;;;15.60;99.90;;;;;;7370076;19;20378;-60
2023/07/01 04:30:56;;;;;;;7.95;5.55;;;15.60;99.90;;;;;;7369870;19;20074;-68
2023/07/01 04:33:23;;;;;;;9.90;5.88;;;15.60;99.90;;;;;;7367340;19;20755;-60
2023/07/01 04:35:49;;;;;;;9.73;5.85;;;15.60;99.90;;;;;;7369543;19;20107;-60
2023/07/01 04:38:16;;;;;;;9.18;5.70;;;15.70;99.90;;;;;;7372055;19;20489;-59
2023/07/01 04:40:42;;;;;;;5.40;4.20;;;15.70;99.90;;;;;;7371516;19;20026;-60
2023/07/01 04:43:10;;;;;;;7.00;5.35;;;15.70;99.90;;;;;;7367263;19;20577;-66
2023/07/01 04:45:36;;;;;;;10.27;5.32;;;15.70;99.90;;;;;;7371984;19;20019;-66
2023/07/01 04:48:03;;;;;;;11.82;7.03;;;15.70;99.90;;;;;;7377632;19;20022;-60
2023/07/01 04:50:29;;;;;;;9.52;5.47;;;15.70;99.90;;;;;;7374687;19;20052;-65
2023/07/01 04:52:56;;;;;;;8.20;6.35;;;15.80;99.90;;;;;;7368172;19;20022;-59
2023/07/01 04:55:22;;;;;;;7.55;5.93;;;15.80;99.90;;;;;;7370170;19;20022;-66
2023/07/01 04:57:48;;;;;;;8.45;5.68;;;15.80;99.90;;;;;;7373583;19;20022;-66
2023/07/01 05:00:15;;;;;;;8.38;5.13;;;15.90;99.90;;;;;;7367274;19;20130;-66
2023/07/01 05:02:41;;;;;;;9.52;5.50;;;15.90;99.90;;;;;;7372318;19;20457;-64
2023/07/01 05:05:10;;;;;;;10.98;6.45;;;15.90;99.90;;;;;;7374894;19;20086;-58
2023/07/01 05:07:37;;;;;;;10.00;5.82;;;16.00;99.90;;;;;;7373912;19;20025;-67
2023/07/01 05:10:03;;;;;;;10.27;6.45;;;16.00;99.90;;;;;;7376568;19;20488;-59
2023/07/01 05:12:30;;;;;;;10.95;5.65;;;16.20;99.90;;;;;;7379486;19;20019;-67
2023/07/01 05:14:56;;;;;;;6.95;5.47;;;16.30;99.90;;;;;;7377837;19;20029;-67
2023/07/01 05:17:22;;;;;;;9.63;5.55;;;16.40;99.90;;;;;;7378321;19;20018;-60
2023/07/01 05:19:49;;;;;;;7.78;5.13;;;16.40;99.90;;;;;;7371918;19;20018;-67
2023/07/01 05:22:15;;;;;;;8.38;5.13;;;16.40;99.90;;;;;;7373692;19;20041;-59
2023/07/01 05:24:41;;;;;;;9.40;5.00;;;16.50;99.90;;;;;;7378116;19;20251;-68
2023/07/01 05:27:07;;;;;;;7.93;5.78;;;16.50;99.90;;;;;;7377541;19;20498;-58
2023/07/01 05:29:37;;;;;;;11.45;5.53;;;16.50;99.90;;;;;;7375622;19;20018;-59
2023/07/01 05:32:03;;;;;;;12.27;5.75;;;16.50;99.90;;;;;;7376101;19;20370;-67
2023/07/01 05:34:30;;;;;;;9.05;5.15;;;16.60;99.90;;;;;;7376978;19;20018;-68
2023/07/01 05:36:56;;;;;;;10.25;5.32;;;16.60;99.90;;;;;;7374600;19;20302;-59
2023/07/01 05:39:22;;;;;;;8.98;5.28;;;16.60;99.90;;;;;;7375993;19;20027;-59
2023/07/01 05:41:48;;;;;;;8.40;4.65;;;16.70;99.90;;;;;;7373185;19;20014;-59
2023/07/01 05:44:15;;;;;;;7.38;5.03;;;16.70;99.90;;;;;;7372393;19;20162;-59
2023/07/01 05:46:42;;;;;;;7.38;4.97;;;16.80;99.90;;;;;;7374241;19;20022;-68
2023/07/01 05:49:09;;;;;;;7.32;5.22;;;16.80;99.90;;;;;;7372699;19;20014;-58
2023/07/01 05:51:38;;;;;;;10.88;5.53;;;16.90;99.90;;;;;;7371054;19;20018;-58
2023/07/01 05:54:04;;;;;;;8.32;5.20;;;16.90;99.90;;;;;;7368637;19;20006;-68
2023/07/01 05:56:30;;;;;;;9.45;5.28;;;16.90;99.90;;;;;;7370529;19;20018;-68
2023/07/01 05:58:57;;;;;;;7.50;5.00;;;17.00;99.90;;;;;;7367563;19;20018;-68
2023/07/01 06:01:23;;;;;;;8.68;4.97;;;17.00;99.90;;;;;;7372301;19;20022;-68
2023/07/01 06:03:49;;;;;;;9.18;4.88;;;17.00;99.90;;;;;;7369558;19;20289;-68
2023/07/01 06:06:15;;;;;;;9.68;5.60;;;17.00;99.90;;;;;;7373123;19;20018;-69
2023/07/01 06:08:42;;;;;;;12.48;6.03;;;16.90;99.90;;;;;;7370926;19;20094;-59
2023/07/01 06:11:08;;;;;;;8.00;5.75;;;16.80;99.90;;;;;;7370617;19;20422;-68
2023/07/01 06:13:37;;;;;;;8.77;6.18;;;16.80;99.90;;;;;;7369305;19;20386;-68
2023/07/01 06:16:04;;;;;;;11.40;6.13;;;16.70;99.90;;;;;;7366777;19;20058;-68
2023/07/01 06:18:33;;;;;;;11.95;6.03;;;16.70;99.90;;;;;;7372905;19;20018;-68
2023/07/01 06:21:03;;;;;;;9.60;6.82;;;16.70;99.90;;;;;;7370690;19;20018;-59
2023/07/01 06:23:33;;;;;;;8.68;6.97;;;16.60;99.90;;;;;;7370493;19;20022;-59
2023/07/01 06:25:59;;;;;;;10.13;8.18;;;16.60;99.90;;;;;;7373245;19;20021;-65
2023/07/01 06:28:25;;;;;;;8.50;7.43;;;16.50;99.90;;;;;;7370435;19;20608;-67
2023/07/01 06:30:51;;;;;;;9.85;6.55;;;16.50;99.90;;;;;;7369730;19;20493;-59
2023/07/01 06:33:17;;;;;;;9.25;7.88;;;16.50;99.90;;;;;;7368817;19;20366;-59
2023/07/01 06:35:45;;;;;;;11.10;8.20;;;16.50;99.90;;;;;;7369482;19;20362;-60
2023/07/01 06:38:12;;;;;;;10.95;8.73;;;16.50;99.90;;;;;;7369649;19;20011;-66
2023/07/01 06:40:38;;;;;;;13.13;8.63;;;16.40;99.90;;;;;;7370317;19;20026;-60
2023/07/01 06:43:05;;;;;;;10.90;9.80;;;16.30;99.90;;;;;;7371654;19;20383;-66
2023/07/01 06:45:32;;;;;;;10.52;9.02;;;16.30;99.90;;;;;;7373532;19;20481;-66
2023/07/01 06:47:58;;;;;;;15.90;10.32;;;16.20;99.90;;;;;;7368542;19;20025;-63
2023/07/01 06:50:25;;;;;;;39.88;35.60;;;16.10;99.90;;;;;;7369742;19;20018;-60
2023/07/01 06:52:52;;;;;;;65.57;58.80;;;16.10;99.90;;;;;;7372459;19;20052;-66
2023/07/01 06:55:20;;;;;;;20.25;18.23;;;16.20;99.90;;;;;;7371688;19;20038;-64
2023/07/01 06:57:46;;;;;;;19.30;15.10;;;16.10;99.90;;;;;;7371455;19;20396;-63
2023/07/01 07:00:13;;;;;;;16.40;13.55;;;16.10;99.90;;;;;;7369732;19;20030;-63
2023/07/01 07:02:39;;;;;;;13.68;12.27;;;16.20;99.90;;;;;;7373009;19;20354;-63
2023/07/01 07:05:06;;;;;;;14.02;12.52;;;16.20;99.90;;;;;;7373180;19;20014;-59
2023/07/01 07:07:33;;;;;;;14.73;12.10;;;16.20;99.90;;;;;;7369807;19;20454;-59
2023/07/01 07:09:59;;;;;;;12.98;11.40;;;16.30;99.90;;;;;;7369117;19;20026;-60
2023/07/01 07:12:26;;;;;;;13.07;11.90;;;16.30;99.90;;;;;;7371669;19;20365;-60
2023/07/01 07:14:52;;;;;;;12.48;11.23;;;16.40;99.90;;;;;;7374318;19;20490;-64
2023/07/01 07:17:19;;;;;;;13.93;11.07;;;16.50;99.90;;;;;;7376860;19;20373;-64
2023/07/01 07:19:45;;;;;;;13.35;11.82;;;16.50;99.90;;;;;;7375221;19;20380;-64
2023/07/01 07:22:11;;;;;;;13.15;11.27;;;16.50;99.90;;;;;;7377034;19;20030;-65
2023/07/01 07:24:38;;;;;;;13.07;11.80;;;16.50;99.90;;;;;;7376868;19;20659;-65
2023/07/01 07:27:05;;;;;;;71.03;63.95;;;16.50;99.90;;;;;;7375397;19;20023;-65
2023/07/01 07:29:33;;;;;;;24.95;22.50;;;16.50;99.90;;;;;;7379818;19;20464;-64
2023/07/01 07:32:00;;;;;;;22.80;20.40;;;16.50;99.90;;;;;;7378501;19;20019;-64
2023/07/01 07:34:26;;;;;;;13.13;11.82;;;16.50;99.90;;;;;;7381168;19;20023;-64
2023/07/01 07:36:52;;;;;;;16.42;13.90;;;16.60;99.90;;;;;;7378346;19;20086;-65
2023/07/01 07:39:19;;;;;;;16.23;14.60;;;16.60;99.90;;;;;;7379102;19;20014;-65
2023/07/01 07:41:45;;;;;;;14.02;12.63;;;16.60;99.90;;;;;;7376957;19;20142;-65
2023/07/01 07:44:12;;;;;;;13.63;11.85;;;16.60;99.90;;;;;;7381603;19;20548;-65
2023/07/01 07:46:38;;;;;;;13.23;11.82;;;16.70;99.90;;;;;;7381341;19;20014;-65
2023/07/01 07:49:05;;;;;;;12.20;11.00;;;16.70;99.90;;;;;;7375332;19;20032;-62
2023/07/01 07:51:32;;;;;;;12.88;11.55;;;16.80;99.90;;;;;;7370880;19;20014;-65
2023/07/01 07:53:58;;;;;;;12.65;11.25;;;16.80;99.90;;;;;;7368230;19;20023;-66
2023/07/01 07:56:24;;;;;;;13.00;11.70;;;16.90;99.90;;;;;;7376452;19;20029;-79
2023/07/01 07:58:51;;;;;;;45.10;40.92;;;17.00;99.90;;;;;;7371222;19;20019;-79
2023/07/01 08:01:17;;;;;;;14.38;13.02;;;17.00;99.90;;;;;;7370549;19;20055;-79
2023/07/01 08:03:45;;;;;;;18.80;16.83;;;17.00;99.90;;;;;;7371646;19;20608;-79
2023/07/01 08:06:12;;;;;;;13.00;11.35;;;17.00;99.90;;;;;;7370389;19;20019;-80
2023/07/01 08:08:38;;;;;;;15.98;14.40;;;17.00;99.90;;;;;;7372073;19;20026;-79
2023/07/01 08:11:05;;;;;;;13.20;11.82;;;17.10;99.90;;;;;;7371027;19;20327;-80
2023/07/01 08:13:31;;;;;;;13.73;11.65;;;17.00;99.90;;;;;;7371235;19;20054;-79
2023/07/01 08:15:58;;;;;;;12.75;11.55;;;17.00;99.90;;;;;;7370161;19;20025;-79
2023/07/01 08:18:24;;;;;;;11.52;10.27;;;17.10;99.90;;;;;;7373514;19;20021;-79
2023/07/01 08:20:51;;;;;;;15.13;10.35;;;17.10;99.90;;;;;;7381188;19;20018;-80
2023/07/01 08:23:18;;;;;;;12.00;10.80;;;17.20;99.90;;;;;;7380639;19;20073;-79
2023/07/01 08:25:45;;;;;;;12.15;10.27;;;17.20;99.90;;;;;;7381401;19;20019;-79
2023/07/01 08:28:11;;;;;;;11.63;10.50;;;17.20;99.90;;;;;;7380828;19;20021;-80
2023/07/01 08:30:37;;;;;;;22.55;20.27;;;17.30;99.90;;;;;;7380149;19;20019;-80
2023/07/01 08:33:09;;;;;;;19.92;17.85;;;17.30;99.90;;;;;;7378856;19;20059;-80
2023/07/01 08:35:35;;;;;;;30.77;27.83;;;17.30;99.90;;;;;;7379850;19;20410;-80
2023/07/01 08:38:01;;;;;;;13.82;12.57;;;17.40;99.90;;;;;;7375719;19;20018;-79
2023/07/01 08:40:28;;;;;;;13.23;11.93;;;17.40;99.90;;;;;;7375078;19;20023;-79
2023/07/01 08:43:02;;;;;;;11.10;9.55;;;17.40;99.90;;;;;;7374969;19;20124;-80
2023/07/01 08:45:30;;;;;;;11.55;10.45;;;17.40;99.90;;;;;;7376193;19;20022;-78
2023/07/01 08:48:01;;;;;;;10.93;10.02;;;17.40;99.90;;;;;;7374688;19;20022;-78
2023/07/01 08:50:49;;;;;;;10.20;9.18;;;17.40;99.90;;;;;;7370631;19;20077;-79
2023/07/01 08:53:16;;;;;;;10.32;9.32;;;17.40;99.90;;;;;;7381555;19;20014;-80
2023/07/01 08:55:46;;;;;;;10.73;9.73;;;17.40;99.90;;;;;;7385542;19;20022;-79
2023/07/01 08:58:14;;;;;;;10.98;9.98;;;17.50;99.90;;;;;;7381118;19;20039;-79
2023/07/01 09:00:42;;;;;;;11.98;9.65;;;17.50;99.90;;;;;;7381902;19;20029;-79
2023/07/01 09:03:11;;;;;;;10.60;9.57;;;17.50;99.90;;;;;;7381452;19;20384;-79
2023/07/01 09:05:38;;;;;;;11.10;10.07;;;17.60;99.90;;;;;;7379576;19;20832;-79
2023/07/01 09:08:04;;;;;;;9.75;8.85;;;17.60;99.90;;;;;;7376139;19;20027;-79
2023/07/01 09:10:30;;;;;;;10.25;9.23;;;17.60;99.90;;;;;;7379958;19;20035;-79
2023/07/01 09:13:12;;;;;;;10.68;9.73;;;17.60;99.90;;;;;;7379436;19;20575;-79
2023/07/01 09:15:51;;;;;;;11.23;10.07;;;17.60;99.90;;;;;;7379481;19;20025;-79
2023/07/01 09:18:29;;;;;;;11.38;10.10;;;17.60;99.90;;;;;;7380169;19;20018;-79
2023/07/01 09:20:57;;;;;;;11.25;10.15;;;17.60;99.90;;;;;;7378901;19;20499;-79
2023/07/01 09:37:18;;;;;;;10.07;9.18;;;17.80;99.90;;;;;;7400498;19;21192;-64
2023/07/01 09:39:45;;;;;;;9.25;8.35;;;18.10;99.90;;;;;;7409857;19;20014;-61
2023/07/01 09:42:12;;;;;;;8.88;8.05;;;18.10;99.90;;;;;;7391395;19;20022;-64
2023/07/01 09:44:38;;;;;;;10.23;9.32;;;18.00;99.90;;;;;;7411220;19;20021;-61
2023/07/01 09:47:05;;;;;;;9.30;8.38;;;18.10;99.90;;;;;;7412933;19;20626;-61
2023/07/01 09:49:42;;;;;;;9.50;8.50;;;18.00;99.90;;;;;;7414479;19;20014;-61
2023/07/01 09:52:08;;;;;;;11.05;9.90;;;18.10;99.90;;;;;;7411799;19;20029;-61
2023/07/01 09:54:37;;;;;;;10.13;9.13;;;18.20;99.90;;;;;;7410029;19;20018;-61
2023/07/01 09:57:05;;;;;;;9.50;8.60;;;18.30;99.90;;;;;;7411370;19;20059;-63
2023/07/01 09:59:31;;;;;;;10.10;9.02;;;18.30;99.90;;;;;;7409388;19;20370;-60
2023/07/01 10:02:01;;;;;;;34.63;31.35;;;18.30;99.90;;;;;;7407994;19;20041;-66
2023/07/01 10:04:38;;;;;;;24.88;22.48;;;18.30;99.90;;;;;;7408241;19;20022;-61
2023/07/01 10:07:04;;;;;;;29.13;26.30;;;18.20;99.90;;;;;;7387204;19;20491;-61
2023/07/01 10:09:31;;;;;;;13.05;11.75;;;18.20;99.90;;;;;;7387316;19;20029;-61
2023/07/01 10:12:02;;;;;;;16.83;11.90;;;18.10;99.90;;;;;;7404425;19;20018;-62
2023/07/01 10:14:33;;;;;;;13.00;11.80;;;18.20;99.90;;;;;;7403013;19;20026;-62
2023/07/01 10:16:59;;;;;;;12.45;11.18;;;18.10;99.90;;;;;;7407843;19;20015;-64
2023/07/01 10:19:33;;;;;;;10.85;9.77;;;18.10;99.90;;;;;;7411905;19;20035;-65
2023/07/01 10:22:20;;;;;;;12.35;11.05;;;18.10;99.90;;;;;;7410261;19;20010;-65
2023/07/01 10:25:03;;;;;;;12.25;10.85;;;18.20;99.90;;;;;;7407963;19;20476;-64
2023/07/01 10:27:42;;;;;;;11.55;10.38;;;18.40;99.90;;;;;;7406510;19;20500;-62
2023/07/01 10:30:10;;;;;;;10.88;9.60;;;18.40;99.90;;;;;;7410562;19;20010;-65
2023/07/01 10:32:37;;;;;;;11.32;10.23;;;18.50;99.90;;;;;;7406611;19;20336;-63
2023/07/01 10:35:03;;;;;;;10.80;9.02;;;18.40;99.90;;;;;;7400469;19;20057;-60
2023/07/01 10:37:33;;;;;;;33.10;29.85;;;18.50;99.90;;;;;;7380071;19;20053;-64
2023/07/01 10:40:08;;;;;;;64.00;58.00;;;18.50;99.90;;;;;;7376716;19;20038;-63
2023/07/01 10:42:36;;;;;;;45.28;40.97;;;18.60;99.90;;;;;;7376895;19;20014;-63
2023/07/01 10:45:12;;;;;;;15.95;14.40;;;18.60;99.90;;;;;;7370866;19;20486;-65
2023/07/01 10:47:42;;;;;;;10.38;9.45;;;18.60;99.90;;;;;;7379875;19;20806;-63
2023/07/01 10:50:13;;;;;;;11.70;10.60;;;18.70;99.90;;;;;;7377339;19;20018;-63
2023/07/01 10:53:01;;;;;;;12.43;11.13;;;18.70;99.90;;;;;;7379110;19;20022;-63
2023/07/01 10:55:44;;;;;;;9.68;8.77;;;18.70;99.90;;;;;;7381095;19;20018;-64
2023/07/01 10:58:23;;;;;;;10.98;9.90;;;18.70;99.90;;;;;;7386349;19;20109;-64
2023/07/01 11:00:52;;;;;;;10.85;9.75;;;18.70;99.90;;;;;;7380255;19;20124;-64
2023/07/01 11:03:33;;;;;;;11.02;9.70;;;18.70;99.90;;;;;;7376877;19;20660;-64
2023/07/01 11:06:03;;;;;;;12.52;9.38;;;18.80;99.90;;;;;;7381624;19;20022;-64
2023/07/01 11:08:42;;;;;;;10.25;9.20;;;18.80;99.90;;;;;;7381110;19;20026;-64
2023/07/01 11:11:08;;;;;;;33.85;30.48;;;18.80;99.90;;;;;;7380340;19;20425;-67
2023/07/01 11:13:37;;;;;;;41.15;36.92;;;19.00;99.90;;;;;;7380350;19;20023;-66
2023/07/01 11:16:09;;;;;;;22.50;20.35;;;19.10;99.90;;;;;;7382794;19;20022;-64
2023/07/01 11:18:43;;;;;;;15.10;13.52;;;19.20;99.90;;;;;;7385379;19;20026;-65
2023/07/01 11:21:11;;;;;;;10.48;9.48;;;19.50;99.90;;;;;;7380657;19;20019;-65
2023/07/01 11:23:41;;;;;;;12.35;11.07;;;19.30;99.90;;;;;;7379325;19;20430;-64
2023/07/01 11:26:09;;;;;;;12.20;10.52;;;19.20;99.90;;;;;;7376502;19;20479;-61
2023/07/01 11:28:38;;;;;;;11.07;9.80;;;19.20;99.90;;;;;;7375989;19;20018;-62
2023/07/01 11:31:18;;;;;;;10.35;9.25;;;19.20;99.90;;;;;;7376742;19;20021;-63
2023/07/01 11:33:49;;;;;;;10.60;9.57;;;19.10;99.90;;;;;;7379792;19;20018;-63
2023/07/01 11:36:18;;;;;;;9.98;8.98;;;19.00;99.90;;;;;;7376518;19;20154;-63
2023/07/01 11:38:49;;;;;;;9.65;8.73;;;18.90;99.90;;;;;;7375420;19;20052;-63
2023/07/01 11:41:23;;;;;;;10.40;8.57;;;18.80;99.90;;;;;;7379269;19;20618;-63
2023/07/01 11:43:50;;;;;;;10.35;9.35;;;18.80;99.90;;;;;;7372065;19;20015;-59
2023/07/01 11:46:37;;;;;;;10.30;9.23;;;18.80;99.90;;;;;;7378025;19;20022;-60
2023/07/01 11:49:30;;;;;;;11.52;9.38;;;18.90;99.90;;;;;;7375359;19;20018;-60
2023/07/01 11:52:02;;;;;;;10.80;9.70;;;18.80;99.90;;;;;;7376402;19;20118;-60
2023/07/01 11:54:47;;;;;;;10.05;9.05;;;18.80;99.90;;;;;;7375326;19;20022;-60
2023/07/01 11:57:15;;;;;;;8.18;7.25;;;18.80;99.90;;;;;;7374294;19;20477;-60
2023/07/01 11:59:44;;;;;;;6.97;6.10;;;18.80;99.90;;;;;;7375882;19;20021;-60
2023/07/01 12:02:11;;;;;;;6.20;4.80;;;18.80;99.90;;;;;;7379259;19;20651;-60
2023/07/01 12:04:37;;;;;;;8.07;6.50;;;18.90;99.90;;;;;;7374239;19;20635;-62
2023/07/01 12:07:13;;;;;;;7.15;6.45;;;19.10;99.90;;;;;;7374749;19;20031;-60
2023/07/01 12:09:41;;;;;;;8.35;6.55;;;19.30;99.90;;;;;;7376435;19;20022;-64
2023/07/01 12:12:31;;;;;;;13.10;11.68;;;19.40;99.90;;;;;;7374408;19;20010;-61
2023/07/01 12:15:06;;;;;;;32.67;29.52;;;19.70;99.90;;;;;;7375069;19;20514;-62
2023/07/01 12:17:34;;;;;;;9.50;8.43;;;20.10;99.90;;;;;;7377884;19;20014;-63
2023/07/01 12:20:01;;;;;;;9.85;8.70;;;20.30;99.90;;;;;;7377950;19;20035;-62
2023/07/01 12:22:28;;;;;;;10.55;9.45;;;20.60;99.90;;;;;;7380935;19;20018;-62
2023/07/01 12:24:56;;;;;;;6.32;5.47;;;20.70;99.90;;;;;;7378279;19;20045;-62
2023/07/01 12:27:22;;;;;;;10.75;9.65;;;20.80;99.90;;;;;;7378849;19;20046;-63
2023/07/01 12:29:49;;;;;;;8.07;5.82;;;20.90;99.90;;;;;;7361535;19;20035;-60
2023/07/01 12:32:15;;;;;;;13.75;12.40;;;20.80;99.90;;;;;;7377161;19;20018;-59
2023/07/01 12:34:41;;;;;;;21.55;18.80;;;20.70;99.90;;;;;;7373242;19;20045;-59
2023/07/01 12:37:08;;;;;;;31.58;28.38;;;20.80;99.90;;;;;;7374096;19;20014;-60
2023/07/01 12:39:36;;;;;;;22.77;20.58;;;20.80;99.90;;;;;;7370354;19;20038;-62
2023/07/01 12:42:04;;;;;;;8.27;7.35;;;20.90;99.90;;;;;;7364804;19;20367;-61
2023/07/01 12:44:33;;;;;;;11.25;9.75;;;20.90;99.90;;;;;;7366017;19;20022;-61
2023/07/01 12:47:00;;;;;;;19.85;17.92;;;20.70;99.90;;;;;;7363470;19;20022;-63
2023/07/01 12:49:27;;;;;;;18.25;16.35;;;20.50;99.90;;;;;;7368429;19;20022;-62
2023/07/01 12:51:53;;;;;;;12.45;11.20;;;20.20;99.90;;;;;;7366163;19;20060;-62
2023/07/01 12:54:20;;;;;;;7.88;6.35;;;19.90;99.90;;;;;;7365618;19;20024;-61
2023/07/01 12:56:46;;;;;;;9.45;7.18;;;19.70;99.90;;;;;;7365131;19;20089;-61
2023/07/01 12:59:12;;;;;;;8.13;6.45;;;19.60;99.90;;;;;;7364113;19;20025;-61